sensor_id;sensor_type;location;lat;lon;timestamp;P1;P2;P0
73623;PMS5003;61921;53.226;-1.296;2023-05-25T00:00:36;13;11;
73623;PMS5003;61921;53.226;-1.296;2023-05-25T00:03:01;11;11;
73623;PMS5003;61921;53.226;-1.296;2023-05-25T00:05:27;14;11;
73623;PMS5003;61921;53.226;-1.296;2023-05-25T00:07:53;14;13;
73623;PMS5003;61921;53.226;-1.296;2023-05-25T00:10:18;11;9;
73623;PMS5003;61921;53.226;-1.296;2023-05-25T00:12:44;13;12;
73623;PMS5003;61921;53.226;-1.296;2023-05-25T00:15:10;14;13;
73623;PMS5003;61921;53.226;-1.296;2023-05-25T00:17:35;14;14;
73623;PMS5003;61921;53.226;-1.296;2023-05-25T00:20:00;17;15;
73623;PMS5003;61921;53.226;-1.296;2023-05-25T00:22:26;15;12;
73623;PMS5003;61921;53.226;-1.296;2023-05-25T00:24:51;17;14;
73623;PMS5003;61921;53.226;-1.296;2023-05-25T00:27:17;15;12;
73623;PMS5003;61921;53.226;-1.296;2023-05-25T00:29:42;13;12;
73623;PMS5003;61921;53.226;-1.296;2023-05-25T00:32:08;14;13;
73623;PMS5003;61921;53.226;-1.296;2023-05-25T00:34:33;15;15;
73623;PMS5003;61921;53.226;-1.296;2023-05-25T00:36:58;12;12;
73623;PMS5003;61921;53.226;-1.296;2023-05-25T00:39:25;15;13;
73623;PMS5003;61921;53.226;-1.296;2023-05-25T00:41:50;13;13;
73623;PMS5003;61921;53.226;-1.296;2023-05-25T00:44:15;14;13;
73623;PMS5003;61921;53.226;-1.296;2023-05-25T00:46:41;14;13;
73623;PMS5003;61921;53.226;-1.296;2023-05-25T00:49:07;15;14;
73623;PMS5003;61921;53.226;-1.296;2023-05-25T00:51:31;16;15;
73623;PMS5003;61921;53.226;-1.296;2023-05-25T00:53:57;11;11;
73623;PMS5003;61921;53.226;-1.296;2023-05-25T00:56:23;12;12;
73623;PMS5003;61921;53.226;-1.296;2023-05-25T00:58:49;16;15;
73623;PMS5003;61921;53.226;-1.296;2023-05-25T01:01:12;16;13;
73623;PMS5003;61921;53.226;-1.296;2023-05-25T01:03:39;16;16;
73623;PMS5003;61921;53.226;-1.296;2023-05-25T01:06:03;16;15;
73623;PMS5003;61921;53.226;-1.296;2023-05-25T01:08:28;12;12;
73623;PMS5003;61921;53.226;-1.296;2023-05-25T01:10:53;20;17;
73623;PMS5003;61921;53.226;-1.296;2023-05-25T01:13:19;19;17;
73623;PMS5003;61921;53.226;-1.296;2023-05-25T01:15:44;17;15;
73623;PMS5003;61921;53.226;-1.296;2023-05-25T01:18:09;15;14;
73623;PMS5003;61921;53.226;-1.296;2023-05-25T01:20:34;14;14;
73623;PMS5003;61921;53.226;-1.296;2023-05-25T01:23:02;13;12;
73623;PMS5003;61921;53.226;-1.296;2023-05-25T01:25:26;15;14;
73623;PMS5003;61921;53.226;-1.296;2023-05-25T01:27:51;12;11;
73623;PMS5003;61921;53.226;-1.296;2023-05-25T01:30:15;16;16;
73623;PMS5003;61921;53.226;-1.296;2023-05-25T01:32:42;16;16;
73623;PMS5003;61921;53.226;-1.296;2023-05-25T01:35:08;15;14;
73623;PMS5003;61921;53.226;-1.296;2023-05-25T01:37:34;11;10;
73623;PMS5003;61921;53.226;-1.296;2023-05-25T01:39:59;16;13;
73623;PMS5003;61921;53.226;-1.296;2023-05-25T01:42:24;15;13;
73623;PMS5003;61921;53.226;-1.296;2023-05-25T01:44:50;17;11;
73623;PMS5003;61921;53.226;-1.296;2023-05-25T01:47:27;14;14;
73623;PMS5003;61921;53.226;-1.296;2023-05-25T01:49:42;20;17;
73623;PMS5003;61921;53.226;-1.296;2023-05-25T01:52:11;17;14;
73623;PMS5003;61921;53.226;-1.296;2023-05-25T01:54:34;16;15;
73623;PMS5003;61921;53.226;-1.296;2023-05-25T01:56:58;13;12;
73623;PMS5003;61921;53.226;-1.296;2023-05-25T01:59:23;14;12;
73623;PMS5003;61921;53.226;-1.296;2023-05-25T02:01:49;14;11;
73623;PMS5003;61921;53.226;-1.296;2023-05-25T02:04:15;15;13;
73623;PMS5003;61921;53.226;-1.296;2023-05-25T02:06:40;13;11;
73623;PMS5003;61921;53.226;-1.296;2023-05-25T02:09:06;13;12;
73623;PMS5003;61921;53.226;-1.296;2023-05-25T02:11:31;13;13;
73623;PMS5003;61921;53.226;-1.296;2023-05-25T02:13:57;13;12;
73623;PMS5003;61921;53.226;-1.296;2023-05-25T02:16:22;13;11;
73623;PMS5003;61921;53.226;-1.296;2023-05-25T02:18:47;14;11;
73623;PMS5003;61921;53.226;-1.296;2023-05-25T02:21:12;16;15;
73623;PMS5003;61921;53.226;-1.296;2023-05-25T02:23:38;16;13;
73623;PMS5003;61921;53.226;-1.296;2023-05-25T02:26:04;16;16;
73623;PMS5003;61921;53.226;-1.296;2023-05-25T02:28:29;17;12;
73623;PMS5003;61921;53.226;-1.296;2023-05-25T02:30:54;13;12;
73623;PMS5003;61921;53.226;-1.296;2023-05-25T02:33:20;16;14;
73623;PMS5003;61921;53.226;-1.296;2023-05-25T02:35:45;14;14;
73623;PMS5003;61921;53.226;-1.296;2023-05-25T02:38:11;14;14;
73623;PMS5003;61921;53.226;-1.296;2023-05-25T02:40:36;15;13;
73623;PMS5003;61921;53.226;-1.296;2023-05-25T02:43:02;13;13;
73623;PMS5003;61921;53.226;-1.296;2023-05-25T02:45:27;15;15;
73623;PMS5003;61921;53.226;-1.296;2023-05-25T02:47:52;12;11;
73623;PMS5003;61921;53.226;-1.296;2023-05-25T02:50:18;17;13;
73623;PMS5003;61921;53.226;-1.296;2023-05-25T02:52:43;18;17;
73623;PMS5003;61921;53.226;-1.296;2023-05-25T02:55:09;17;14;
73623;PMS5003;61921;53.226;-1.296;2023-05-25T02:57:34;15;15;
73623;PMS5003;61921;53.226;-1.296;2023-05-25T03:00:00;18;15;
73623;PMS5003;61921;53.226;-1.296;2023-05-25T03:02:26;14;13;
73623;PMS5003;61921;53.226;-1.296;2023-05-25T03:04:51;14;13;
73623;PMS5003;61921;53.226;-1.296;2023-05-25T03:07:17;11;10;
73623;PMS5003;61921;53.226;-1.296;2023-05-25T03:09:41;14;14;
73623;PMS5003;61921;53.226;-1.296;2023-05-25T03:12:07;16;15;
73623;PMS5003;61921;53.226;-1.296;2023-05-25T03:14:32;16;15;
73623;PMS5003;61921;53.226;-1.296;2023-05-25T03:16:58;17;16;
73623;PMS5003;61921;53.226;-1.296;2023-05-25T03:19:23;18;15;
73623;PMS5003;61921;53.226;-1.296;2023-05-25T03:21:48;16;14;
73623;PMS5003;61921;53.226;-1.296;2023-05-25T03:24:14;15;14;
73623;PMS5003;61921;53.226;-1.296;2023-05-25T03:26:39;16;15;
73623;PMS5003;61921;53.226;-1.296;2023-05-25T03:29:04;17;16;
73623;PMS5003;61921;53.226;-1.296;2023-05-25T03:31:30;16;16;
73623;PMS5003;61921;53.226;-1.296;2023-05-25T03:33:55;15;15;
73623;PMS5003;61921;53.226;-1.296;2023-05-25T03:36:20;19;17;
73623;PMS5003;61921;53.226;-1.296;2023-05-25T03:38:46;13;13;
73623;PMS5003;61921;53.226;-1.296;2023-05-25T03:41:11;16;14;
73623;PMS5003;61921;53.226;-1.296;2023-05-25T03:43:37;13;12;
73623;PMS5003;61921;53.226;-1.296;2023-05-25T03:46:02;13;11;
73623;PMS5003;61921;53.226;-1.296;2023-05-25T03:48:28;11;10;
73623;PMS5003;61921;53.226;-1.296;2023-05-25T03:50:53;13;11;
73623;PMS5003;61921;53.226;-1.296;2023-05-25T03:53:18;12;10;
73623;PMS5003;61921;53.226;-1.296;2023-05-25T03:55:44;16;14;
73623;PMS5003;61921;53.226;-1.296;2023-05-25T03:58:09;12;10;
73623;PMS5003;61921;53.226;-1.296;2023-05-25T04:00:35;18;12;
73623;PMS5003;61921;53.226;-1.296;2023-05-25T04:03:00;11;11;
73623;PMS5003;61921;53.226;-1.296;2023-05-25T04:05:26;16;13;
73623;PMS5003;61921;53.226;-1.296;2023-05-25T04:07:51;10;9;
73623;PMS5003;61921;53.226;-1.296;2023-05-25T04:10:17;13;10;
73623;PMS5003;61921;53.226;-1.296;2023-05-25T04:12:42;9;9;
73623;PMS5003;61921;53.226;-1.296;2023-05-25T04:15:08;14;11;
73623;PMS5003;61921;53.226;-1.296;2023-05-25T04:17:33;17;13;
73623;PMS5003;61921;53.226;-1.296;2023-05-25T04:19:58;18;14;
73623;PMS5003;61921;53.226;-1.296;2023-05-25T04:22:24;13;9;
73623;PMS5003;61921;53.226;-1.296;2023-05-25T04:24:49;12;12;
73623;PMS5003;61921;53.226;-1.296;2023-05-25T04:27:14;18;16;
73623;PMS5003;61921;53.226;-1.296;2023-05-25T04:29:39;17;13;
73623;PMS5003;61921;53.226;-1.296;2023-05-25T04:32:05;21;20;
73623;PMS5003;61921;53.226;-1.296;2023-05-25T04:34:30;18;17;
73623;PMS5003;61921;53.226;-1.296;2023-05-25T04:36:56;25;21;
73623;PMS5003;61921;53.226;-1.296;2023-05-25T04:39:21;24;20;
73623;PMS5003;61921;53.226;-1.296;2023-05-25T04:41:47;25;20;
73623;PMS5003;61921;53.226;-1.296;2023-05-25T04:44:13;20;16;
73623;PMS5003;61921;53.226;-1.296;2023-05-25T04:46:38;19;18;
73623;PMS5003;61921;53.226;-1.296;2023-05-25T04:49:04;26;21;
73623;PMS5003;61921;53.226;-1.296;2023-05-25T04:51:29;20;18;
73623;PMS5003;61921;53.226;-1.296;2023-05-25T04:53:54;20;17;
73623;PMS5003;61921;53.226;-1.296;2023-05-25T04:56:20;21;19;
73623;PMS5003;61921;53.226;-1.296;2023-05-25T04:58:45;19;19;
73623;PMS5003;61921;53.226;-1.296;2023-05-25T05:01:11;17;16;
73623;PMS5003;61921;53.226;-1.296;2023-05-25T05:03:37;16;16;
73623;PMS5003;61921;53.226;-1.296;2023-05-25T05:06:02;21;18;
73623;PMS5003;61921;53.226;-1.296;2023-05-25T05:08:28;22;20;
73623;PMS5003;61921;53.226;-1.296;2023-05-25T05:10:53;27;20;
73623;PMS5003;61921;53.226;-1.296;2023-05-25T05:13:18;22;19;
73623;PMS5003;61921;53.226;-1.296;2023-05-25T05:15:43;18;18;
73623;PMS5003;61921;53.226;-1.296;2023-05-25T05:18:09;25;19;
73623;PMS5003;61921;53.226;-1.296;2023-05-25T05:20:34;24;18;
73623;PMS5003;61921;53.226;-1.296;2023-05-25T05:22:59;15;14;
73623;PMS5003;61921;53.226;-1.296;2023-05-25T05:25:24;19;17;
73623;PMS5003;61921;53.226;-1.296;2023-05-25T05:27:50;22;19;
73623;PMS5003;61921;53.226;-1.296;2023-05-25T05:30:15;17;15;
73623;PMS5003;61921;53.226;-1.296;2023-05-25T05:32:40;16;16;
73623;PMS5003;61921;53.226;-1.296;2023-05-25T05:35:06;18;15;
73623;PMS5003;61921;53.226;-1.296;2023-05-25T05:37:32;16;13;
73623;PMS5003;61921;53.226;-1.296;2023-05-25T05:39:57;18;17;
73623;PMS5003;61921;53.226;-1.296;2023-05-25T05:42:23;17;14;
73623;PMS5003;61921;53.226;-1.296;2023-05-25T05:44:48;24;18;
73623;PMS5003;61921;53.226;-1.296;2023-05-25T05:47:14;20;18;
73623;PMS5003;61921;53.226;-1.296;2023-05-25T05:49:40;21;15;
73623;PMS5003;61921;53.226;-1.296;2023-05-25T05:52:07;25;21;
73623;PMS5003;61921;53.226;-1.296;2023-05-25T05:54:31;22;17;
73623;PMS5003;61921;53.226;-1.296;2023-05-25T05:56:56;20;17;
73623;PMS5003;61921;53.226;-1.296;2023-05-25T05:59:22;22;20;
73623;PMS5003;61921;53.226;-1.296;2023-05-25T06:01:47;29;29;
73623;PMS5003;61921;53.226;-1.296;2023-05-25T06:04:13;26;25;
73623;PMS5003;61921;53.226;-1.296;2023-05-25T06:06:38;31;22;
73623;PMS5003;61921;53.226;-1.296;2023-05-25T06:09:03;27;23;
73623;PMS5003;61921;53.226;-1.296;2023-05-25T06:11:29;30;25;
73623;PMS5003;61921;53.226;-1.296;2023-05-25T06:13:54;33;27;
73623;PMS5003;61921;53.226;-1.296;2023-05-25T06:16:19;32;30;
73623;PMS5003;61921;53.226;-1.296;2023-05-25T06:18:45;30;25;
73623;PMS5003;61921;53.226;-1.296;2023-05-25T06:21:10;33;25;
73623;PMS5003;61921;53.226;-1.296;2023-05-25T06:23:36;27;24;
73623;PMS5003;61921;53.226;-1.296;2023-05-25T06:26:03;29;26;
73623;PMS5003;61921;53.226;-1.296;2023-05-25T06:28:26;23;20;
73623;PMS5003;61921;53.226;-1.296;2023-05-25T06:30:52;29;24;
73623;PMS5003;61921;53.226;-1.296;2023-05-25T06:33:17;30;27;
73623;PMS5003;61921;53.226;-1.296;2023-05-25T06:35:42;27;23;
73623;PMS5003;61921;53.226;-1.296;2023-05-25T06:38:08;26;23;
73623;PMS5003;61921;53.226;-1.296;2023-05-25T06:40:33;26;20;
73623;PMS5003;61921;53.226;-1.296;2023-05-25T06:42:58;25;23;
73623;PMS5003;61921;53.226;-1.296;2023-05-25T06:45:23;24;22;
73623;PMS5003;61921;53.226;-1.296;2023-05-25T06:47:49;24;20;
73623;PMS5003;61921;53.226;-1.296;2023-05-25T06:50:14;20;17;
73623;PMS5003;61921;53.226;-1.296;2023-05-25T06:52:40;19;16;
73623;PMS5003;61921;53.226;-1.296;2023-05-25T06:55:06;19;17;
73623;PMS5003;61921;53.226;-1.296;2023-05-25T06:57:31;21;18;
73623;PMS5003;61921;53.226;-1.296;2023-05-25T06:59:57;18;14;
73623;PMS5003;61921;53.226;-1.296;2023-05-25T07:02:23;21;18;
73623;PMS5003;61921;53.226;-1.296;2023-05-25T07:04:48;21;17;
73623;PMS5003;61921;53.226;-1.296;2023-05-25T07:07:14;17;15;
73623;PMS5003;61921;53.226;-1.296;2023-05-25T07:09:39;19;15;
73623;PMS5003;61921;53.226;-1.296;2023-05-25T07:12:05;23;18;
73623;PMS5003;61921;53.226;-1.296;2023-05-25T07:14:31;19;14;
73623;PMS5003;61921;53.226;-1.296;2023-05-25T07:16:57;19;17;
73623;PMS5003;61921;53.226;-1.296;2023-05-25T07:19:22;16;14;
73623;PMS5003;61921;53.226;-1.296;2023-05-25T07:21:48;14;12;
73623;PMS5003;61921;53.226;-1.296;2023-05-25T07:24:13;16;14;
73623;PMS5003;61921;53.226;-1.296;2023-05-25T07:26:38;17;14;
73623;PMS5003;61921;53.226;-1.296;2023-05-25T07:29:03;14;12;
73623;PMS5003;61921;53.226;-1.296;2023-05-25T07:31:28;14;13;
73623;PMS5003;61921;53.226;-1.296;2023-05-25T07:33:53;14;11;
73623;PMS5003;61921;53.226;-1.296;2023-05-25T07:36:18;13;11;
73623;PMS5003;61921;53.226;-1.296;2023-05-25T07:38:45;12;10;
73623;PMS5003;61921;53.226;-1.296;2023-05-25T07:41:09;13;10;
73623;PMS5003;61921;53.226;-1.296;2023-05-25T07:43:35;15;12;
73623;PMS5003;61921;53.226;-1.296;2023-05-25T07:46:01;14;14;
73623;PMS5003;61921;53.226;-1.296;2023-05-25T07:48:26;11;9;
73623;PMS5003;61921;53.226;-1.296;2023-05-25T07:50:52;12;12;
73623;PMS5003;61921;53.226;-1.296;2023-05-25T07:53:16;18;14;
73623;PMS5003;61921;53.226;-1.296;2023-05-25T07:55:41;12;12;
73623;PMS5003;61921;53.226;-1.296;2023-05-25T07:58:06;16;12;
73623;PMS5003;61921;53.226;-1.296;2023-05-25T08:00:32;21;17;
73623;PMS5003;61921;53.226;-1.296;2023-05-25T08:02:57;19;15;
73623;PMS5003;61921;53.226;-1.296;2023-05-25T08:05:22;13;12;
73623;PMS5003;61921;53.226;-1.296;2023-05-25T08:07:48;12;12;
73623;PMS5003;61921;53.226;-1.296;2023-05-25T08:10:13;20;15;
73623;PMS5003;61921;53.226;-1.296;2023-05-25T08:12:38;17;14;
73623;PMS5003;61921;53.226;-1.296;2023-05-25T08:15:04;16;13;
73623;PMS5003;61921;53.226;-1.296;2023-05-25T08:17:29;16;12;
73623;PMS5003;61921;53.226;-1.296;2023-05-25T08:19:54;13;10;
73623;PMS5003;61921;53.226;-1.296;2023-05-25T08:22:20;16;14;
73623;PMS5003;61921;53.226;-1.296;2023-05-25T08:24:46;16;12;
73623;PMS5003;61921;53.226;-1.296;2023-05-25T08:27:11;13;11;
73623;PMS5003;61921;53.226;-1.296;2023-05-25T08:29:36;14;9;
73623;PMS5003;61921;53.226;-1.296;2023-05-25T08:32:01;13;11;
73623;PMS5003;61921;53.226;-1.296;2023-05-25T08:34:27;16;13;
73623;PMS5003;61921;53.226;-1.296;2023-05-25T08:36:52;13;11;
73623;PMS5003;61921;53.226;-1.296;2023-05-25T08:39:17;12;9;
73623;PMS5003;61921;53.226;-1.296;2023-05-25T08:41:44;16;13;
73623;PMS5003;61921;53.226;-1.296;2023-05-25T08:44:09;13;12;
73623;PMS5003;61921;53.226;-1.296;2023-05-25T08:46:35;10;9;
73623;PMS5003;61921;53.226;-1.296;2023-05-25T08:49:03;13;11;
73623;PMS5003;61921;53.226;-1.296;2023-05-25T08:51:24;16;14;
73623;PMS5003;61921;53.226;-1.296;2023-05-25T08:53:50;14;13;
73623;PMS5003;61921;53.226;-1.296;2023-05-25T08:56:18;10;10;
73623;PMS5003;61921;53.226;-1.296;2023-05-25T08:58:43;12;10;
73623;PMS5003;61921;53.226;-1.296;2023-05-25T09:01:09;16;14;
73623;PMS5003;61921;53.226;-1.296;2023-05-25T09:03:32;13;11;
73623;PMS5003;61921;53.226;-1.296;2023-05-25T09:05:58;11;10;
73623;PMS5003;61921;53.226;-1.296;2023-05-25T09:08:24;16;15;
73623;PMS5003;61921;53.226;-1.296;2023-05-25T09:10:49;12;11;
73623;PMS5003;61921;53.226;-1.296;2023-05-25T09:13:14;17;11;
73623;PMS5003;61921;53.226;-1.296;2023-05-25T09:15:39;15;13;
73623;PMS5003;61921;53.226;-1.296;2023-05-25T09:18:04;14;12;
73623;PMS5003;61921;53.226;-1.296;2023-05-25T09:20:30;16;14;
73623;PMS5003;61921;53.226;-1.296;2023-05-25T09:22:55;12;11;
73623;PMS5003;61921;53.226;-1.296;2023-05-25T09:25:21;14;12;
73623;PMS5003;61921;53.226;-1.296;2023-05-25T09:27:46;15;10;
73623;PMS5003;61921;53.226;-1.296;2023-05-25T09:30:11;12;12;
73623;PMS5003;61921;53.226;-1.296;2023-05-25T09:32:37;13;11;
73623;PMS5003;61921;53.226;-1.296;2023-05-25T09:35:05;14;12;
73623;PMS5003;61921;53.226;-1.296;2023-05-25T09:37:27;12;11;
73623;PMS5003;61921;53.226;-1.296;2023-05-25T09:39:52;10;9;
73623;PMS5003;61921;53.226;-1.296;2023-05-25T09:42:18;9;8;
73623;PMS5003;61921;53.226;-1.296;2023-05-25T09:44:43;11;11;
73623;PMS5003;61921;53.226;-1.296;2023-05-25T09:47:08;10;10;
73623;PMS5003;61921;53.226;-1.296;2023-05-25T09:49:34;11;11;
73623;PMS5003;61921;53.226;-1.296;2023-05-25T09:51:59;15;12;
73623;PMS5003;61921;53.226;-1.296;2023-05-25T09:54:25;12;10;
73623;PMS5003;61921;53.226;-1.296;2023-05-25T09:56:50;11;10;
73623;PMS5003;61921;53.226;-1.296;2023-05-25T09:59:15;14;10;
73623;PMS5003;61921;53.226;-1.296;2023-05-25T10:01:40;8;8;
73623;PMS5003;61921;53.226;-1.296;2023-05-25T10:04:06;11;8;
73623;PMS5003;61921;53.226;-1.296;2023-05-25T10:06:31;13;10;
73623;PMS5003;61921;53.226;-1.296;2023-05-25T10:08:56;9;9;
73623;PMS5003;61921;53.226;-1.296;2023-05-25T10:11:21;9;9;
73623;PMS5003;61921;53.226;-1.296;2023-05-25T10:13:47;11;10;
73623;PMS5003;61921;53.226;-1.296;2023-05-25T10:16:13;9;9;
73623;PMS5003;61921;53.226;-1.296;2023-05-25T10:18:37;11;8;
73623;PMS5003;61921;53.226;-1.296;2023-05-25T10:21:02;10;9;
73623;PMS5003;61921;53.226;-1.296;2023-05-25T10:23:28;12;11;
73623;PMS5003;61921;53.226;-1.296;2023-05-25T10:25:53;15;10;
73623;PMS5003;61921;53.226;-1.296;2023-05-25T10:28:18;11;10;
73623;PMS5003;61921;53.226;-1.296;2023-05-25T10:30:43;11;11;
73623;PMS5003;61921;53.226;-1.296;2023-05-25T10:33:09;10;9;
73623;PMS5003;61921;53.226;-1.296;2023-05-25T10:35:34;11;10;
73623;PMS5003;61921;53.226;-1.296;2023-05-25T10:37:59;14;10;
73623;PMS5003;61921;53.226;-1.296;2023-05-25T10:40:24;13;12;
73623;PMS5003;61921;53.226;-1.296;2023-05-25T10:42:49;11;11;
73623;PMS5003;61921;53.226;-1.296;2023-05-25T10:45:14;9;8;
73623;PMS5003;61921;53.226;-1.296;2023-05-25T10:47:40;12;8;
73623;PMS5003;61921;53.226;-1.296;2023-05-25T10:50:05;9;8;
73623;PMS5003;61921;53.226;-1.296;2023-05-25T10:52:30;8;7;
73623;PMS5003;61921;53.226;-1.296;2023-05-25T10:54:56;10;8;
73623;PMS5003;61921;53.226;-1.296;2023-05-25T10:57:21;8;8;
73623;PMS5003;61921;53.226;-1.296;2023-05-25T10:59:47;9;8;
73623;PMS5003;61921;53.226;-1.296;2023-05-25T11:02:11;9;9;
73623;PMS5003;61921;53.226;-1.296;2023-05-25T11:04:36;14;10;
73623;PMS5003;61921;53.226;-1.296;2023-05-25T11:07:03;7;6;
73623;PMS5003;61921;53.226;-1.296;2023-05-25T11:09:27;9;9;
73623;PMS5003;61921;53.226;-1.296;2023-05-25T11:14:19;10;7;
73623;PMS5003;61921;53.226;-1.296;2023-05-25T11:16:42;9;9;
73623;PMS5003;61921;53.226;-1.296;2023-05-25T11:19:13;14;10;
73623;PMS5003;61921;53.226;-1.296;2023-05-25T11:21:41;13;11;
73623;PMS5003;61921;53.226;-1.296;2023-05-25T11:23:58;11;9;
73623;PMS5003;61921;53.226;-1.296;2023-05-25T11:26:24;8;6;
73623;PMS5003;61921;53.226;-1.296;2023-05-25T11:28:49;9;8;
73623;PMS5003;61921;53.226;-1.296;2023-05-25T11:31:13;11;7;
73623;PMS5003;61921;53.226;-1.296;2023-05-25T11:33:38;8;7;
73623;PMS5003;61921;53.226;-1.296;2023-05-25T11:36:04;7;7;
73623;PMS5003;61921;53.226;-1.296;2023-05-25T11:38:29;8;5;
73623;PMS5003;61921;53.226;-1.296;2023-05-25T11:40:54;11;7;
73623;PMS5003;61921;53.226;-1.296;2023-05-25T11:43:19;7;7;
73623;PMS5003;61921;53.226;-1.296;2023-05-25T11:45:45;8;7;
73623;PMS5003;61921;53.226;-1.296;2023-05-25T11:48:11;10;9;
73623;PMS5003;61921;53.226;-1.296;2023-05-25T11:50:35;10;7;
73623;PMS5003;61921;53.226;-1.296;2023-05-25T11:53:03;9;7;
73623;PMS5003;61921;53.226;-1.296;2023-05-25T11:55:25;8;7;
73623;PMS5003;61921;53.226;-1.296;2023-05-25T11:57:54;8;6;
73623;PMS5003;61921;53.226;-1.296;2023-05-25T12:02:40;10;10;
73623;PMS5003;61921;53.226;-1.296;2023-05-25T12:05:05;12;8;
73623;PMS5003;61921;53.226;-1.296;2023-05-25T12:07:31;8;7;
73623;PMS5003;61921;53.226;-1.296;2023-05-25T12:10:03;7;5;
73623;PMS5003;61921;53.226;-1.296;2023-05-25T12:12:21;8;7;
73623;PMS5003;61921;53.226;-1.296;2023-05-25T12:14:46;9;8;
73623;PMS5003;61921;53.226;-1.296;2023-05-25T12:17:11;6;6;
73623;PMS5003;61921;53.226;-1.296;2023-05-25T12:19:36;8;8;
73623;PMS5003;61921;53.226;-1.296;2023-05-25T12:22:02;9;9;
73623;PMS5003;61921;53.226;-1.296;2023-05-25T12:24:27;8;8;
73623;PMS5003;61921;53.226;-1.296;2023-05-25T12:26:53;7;6;
73623;PMS5003;61921;53.226;-1.296;2023-05-25T12:29:18;7;6;
73623;PMS5003;61921;53.226;-1.296;2023-05-25T12:31:43;5;4;
73623;PMS5003;61921;53.226;-1.296;2023-05-25T12:34:09;7;6;
73623;PMS5003;61921;53.226;-1.296;2023-05-25T12:36:35;8;8;
73623;PMS5003;61921;53.226;-1.296;2023-05-25T12:38:58;7;7;
73623;PMS5003;61921;53.226;-1.296;2023-05-25T12:41:23;7;7;
73623;PMS5003;61921;53.226;-1.296;2023-05-25T12:43:49;7;7;
73623;PMS5003;61921;53.226;-1.296;2023-05-25T12:48:39;5;5;
73623;PMS5003;61921;53.226;-1.296;2023-05-25T12:51:04;7;7;
73623;PMS5003;61921;53.226;-1.296;2023-05-25T12:53:29;5;5;
73623;PMS5003;61921;53.226;-1.296;2023-05-25T12:55:59;7;5;
73623;PMS5003;61921;53.226;-1.296;2023-05-25T12:58:26;6;5;
73623;PMS5003;61921;53.226;-1.296;2023-05-25T13:00:44;8;7;
73623;PMS5003;61921;53.226;-1.296;2023-05-25T13:03:09;8;8;
73623;PMS5003;61921;53.226;-1.296;2023-05-25T13:05:35;7;6;
73623;PMS5003;61921;53.226;-1.296;2023-05-25T13:08:00;7;5;
73623;PMS5003;61921;53.226;-1.296;2023-05-25T13:10:25;7;7;
73623;PMS5003;61921;53.226;-1.296;2023-05-25T13:12:50;12;8;
73623;PMS5003;61921;53.226;-1.296;2023-05-25T13:15:15;7;7;
73623;PMS5003;61921;53.226;-1.296;2023-05-25T13:17:40;9;8;
73623;PMS5003;61921;53.226;-1.296;2023-05-25T13:20:05;5;5;
73623;PMS5003;61921;53.226;-1.296;2023-05-25T13:22:30;7;5;
73623;PMS5003;61921;53.226;-1.296;2023-05-25T13:24:55;7;7;
73623;PMS5003;61921;53.226;-1.296;2023-05-25T13:27:20;8;7;
73623;PMS5003;61921;53.226;-1.296;2023-05-25T13:29:45;9;7;
73623;PMS5003;61921;53.226;-1.296;2023-05-25T13:32:12;9;8;
73623;PMS5003;61921;53.226;-1.296;2023-05-25T13:34:36;9;6;
73623;PMS5003;61921;53.226;-1.296;2023-05-25T13:37:02;7;6;
73623;PMS5003;61921;53.226;-1.296;2023-05-25T13:39:27;8;7;
73623;PMS5003;61921;53.226;-1.296;2023-05-25T13:41:52;5;5;
73623;PMS5003;61921;53.226;-1.296;2023-05-25T13:44:18;7;7;
73623;PMS5003;61921;53.226;-1.296;2023-05-25T13:46:43;6;4;
73623;PMS5003;61921;53.226;-1.296;2023-05-25T13:49:08;6;6;
73623;PMS5003;61921;53.226;-1.296;2023-05-25T13:51:33;5;5;
73623;PMS5003;61921;53.226;-1.296;2023-05-25T13:53:58;7;5;
73623;PMS5003;61921;53.226;-1.296;2023-05-25T13:56:23;7;5;
73623;PMS5003;61921;53.226;-1.296;2023-05-25T13:58:48;6;5;
73623;PMS5003;61921;53.226;-1.296;2023-05-25T14:01:13;6;6;
73623;PMS5003;61921;53.226;-1.296;2023-05-25T14:03:38;6;6;
73623;PMS5003;61921;53.226;-1.296;2023-05-25T14:06:04;9;8;
73623;PMS5003;61921;53.226;-1.296;2023-05-25T14:08:29;5;5;
73623;PMS5003;61921;53.226;-1.296;2023-05-25T14:10:54;5;5;
73623;PMS5003;61921;53.226;-1.296;2023-05-25T14:13:20;7;5;
73623;PMS5003;61921;53.226;-1.296;2023-05-25T14:15:44;9;7;
73623;PMS5003;61921;53.226;-1.296;2023-05-25T14:18:09;4;4;
73623;PMS5003;61921;53.226;-1.296;2023-05-25T14:20:35;8;6;
73623;PMS5003;61921;53.226;-1.296;2023-05-25T14:23:00;5;5;
73623;PMS5003;61921;53.226;-1.296;2023-05-25T14:25:25;6;6;
73623;PMS5003;61921;53.226;-1.296;2023-05-25T14:27:51;4;4;
73623;PMS5003;61921;53.226;-1.296;2023-05-25T14:30:16;6;5;
73623;PMS5003;61921;53.226;-1.296;2023-05-25T14:32:41;8;5;
73623;PMS5003;61921;53.226;-1.296;2023-05-25T14:35:07;6;6;
73623;PMS5003;61921;53.226;-1.296;2023-05-25T14:37:31;11;11;
73623;PMS5003;61921;53.226;-1.296;2023-05-25T14:39:57;9;8;
73623;PMS5003;61921;53.226;-1.296;2023-05-25T14:42:22;5;5;
73623;PMS5003;61921;53.226;-1.296;2023-05-25T14:44:47;6;6;
73623;PMS5003;61921;53.226;-1.296;2023-05-25T14:47:12;8;8;
73623;PMS5003;61921;53.226;-1.296;2023-05-25T14:49:37;6;5;
73623;PMS5003;61921;53.226;-1.296;2023-05-25T14:52:02;5;5;
73623;PMS5003;61921;53.226;-1.296;2023-05-25T14:54:27;6;6;
73623;PMS5003;61921;53.226;-1.296;2023-05-25T14:56:52;7;5;
73623;PMS5003;61921;53.226;-1.296;2023-05-25T14:59:17;6;5;
73623;PMS5003;61921;53.226;-1.296;2023-05-25T15:01:42;6;5;
73623;PMS5003;61921;53.226;-1.296;2023-05-25T15:04:07;5;5;
73623;PMS5003;61921;53.226;-1.296;2023-05-25T15:06:32;5;5;
73623;PMS5003;61921;53.226;-1.296;2023-05-25T15:08:58;6;4;
73623;PMS5003;61921;53.226;-1.296;2023-05-25T15:11:23;10;8;
73623;PMS5003;61921;53.226;-1.296;2023-05-25T15:13:48;6;6;
73623;PMS5003;61921;53.226;-1.296;2023-05-25T15:16:14;8;8;
73623;PMS5003;61921;53.226;-1.296;2023-05-25T15:18:39;5;4;
73623;PMS5003;61921;53.226;-1.296;2023-05-25T15:21:04;6;6;
73623;PMS5003;61921;53.226;-1.296;2023-05-25T15:23:29;10;9;
73623;PMS5003;61921;53.226;-1.296;2023-05-25T15:25:54;8;7;
73623;PMS5003;61921;53.226;-1.296;2023-05-25T15:28:20;6;4;
73623;PMS5003;61921;53.226;-1.296;2023-05-25T15:30:44;9;6;
73623;PMS5003;61921;53.226;-1.296;2023-05-25T15:33:09;10;9;
73623;PMS5003;61921;53.226;-1.296;2023-05-25T15:35:35;9;8;
73623;PMS5003;61921;53.226;-1.296;2023-05-25T15:38:00;5;4;
73623;PMS5003;61921;53.226;-1.296;2023-05-25T15:40:25;8;7;
73623;PMS5003;61921;53.226;-1.296;2023-05-25T15:42:50;7;7;
73623;PMS5003;61921;53.226;-1.296;2023-05-25T15:45:15;6;4;
73623;PMS5003;61921;53.226;-1.296;2023-05-25T15:47:40;7;7;
73623;PMS5003;61921;53.226;-1.296;2023-05-25T15:50:06;6;5;
73623;PMS5003;61921;53.226;-1.296;2023-05-25T15:52:30;4;4;
73623;PMS5003;61921;53.226;-1.296;2023-05-25T15:54:56;5;5;
73623;PMS5003;61921;53.226;-1.296;2023-05-25T15:57:21;7;7;
73623;PMS5003;61921;53.226;-1.296;2023-05-25T15:59:46;5;5;
73623;PMS5003;61921;53.226;-1.296;2023-05-25T16:02:11;6;6;
73623;PMS5003;61921;53.226;-1.296;2023-05-25T16:04:36;8;7;